createdAt,value
2022-12-28T00:03:33.928Z,7.18
2022-12-28T00:08:35.672Z,6.45
2022-12-28T00:13:37.556Z,6.32
2022-12-28T00:18:39.104Z,5.60
2022-12-28T00:23:40.610Z,5.53
2022-12-28T00:28:42.164Z,5.60
2022-12-28T00:33:44.341Z,5.68
2022-12-28T00:38:47.336Z,5.95
2022-12-28T00:43:48.988Z,5.85
2022-12-28T00:48:50.545Z,5.32
2022-12-28T00:53:52.112Z,7.18
2022-12-28T00:58:59.166Z,6.20
2022-12-28T01:04:00.914Z,5.50
2022-12-28T01:09:02.629Z,5.75
2022-12-28T01:14:04.307Z,5.75
2022-12-28T01:19:07.390Z,6.00
2022-12-28T01:24:10.364Z,6.00
2022-12-28T01:29:11.899Z,6.38
2022-12-28T01:34:13.455Z,7.38
2022-12-28T01:39:14.953Z,8.30
2022-12-28T01:44:16.443Z,8.02
2022-12-28T01:49:37.031Z,7.93
2022-12-28T01:54:51.997Z,7.80
2022-12-28T02:00:06.164Z,6.80
2022-12-28T02:05:14.837Z,6.28
2022-12-28T02:10:41.664Z,7.20
2022-12-28T02:15:39.345Z,6.65
2022-12-28T02:20:55.545Z,6.60
2022-12-28T02:26:33.137Z,6.82
2022-12-28T02:31:41.056Z,6.90
2022-12-28T02:36:49.766Z,7.07
2022-12-28T02:41:52.167Z,7.55
2022-12-28T02:47:12.431Z,7.45
2022-12-28T02:52:23.426Z,7.13
2022-12-28T02:57:24.892Z,6.78
2022-12-28T03:02:34.760Z,6.82
2022-12-28T03:08:00.876Z,6.95
2022-12-28T03:13:06.420Z,7.97
2022-12-28T03:18:34.733Z,6.67
2022-12-28T03:23:59.069Z,8.38
2022-12-28T03:29:23.558Z,9.52
2022-12-28T03:34:25.371Z,9.55
2022-12-28T03:40:01.100Z,9.65
2022-12-28T03:45:45.948Z,8.70
2022-12-28T03:50:50.915Z,8.73
2022-12-28T03:55:53.179Z,8.50
2022-12-28T04:00:55.467Z,9.38
2022-12-28T04:05:57.972Z,8.77
2022-12-28T04:11:01.197Z,8.77
2022-12-28T04:16:08.472Z,7.78
2022-12-28T04:21:13.539Z,8.30
2022-12-28T04:26:18.658Z,6.90
2022-12-28T04:31:22.872Z,7.80
2022-12-28T04:36:31.275Z,9.40
2022-12-28T04:41:35.189Z,9.07
2022-12-28T04:46:36.807Z,8.30
2022-12-28T04:51:38.390Z,8.98
2022-12-28T04:56:40.412Z,8.48
2022-12-28T05:01:42.100Z,8.80
2022-12-28T05:06:43.729Z,8.55
2022-12-28T05:11:45.260Z,9.38
2022-12-28T05:16:50.982Z,9.18
2022-12-28T05:21:52.473Z,9.45
2022-12-28T05:26:54.024Z,8.32
2022-12-28T05:31:55.698Z,8.95
2022-12-28T05:36:57.261Z,8.50
2022-12-28T05:42:00.796Z,9.00
2022-12-28T05:47:02.425Z,9.15
2022-12-28T05:52:04.051Z,9.00
2022-12-28T05:57:05.568Z,9.98
2022-12-28T06:02:07.165Z,8.43
2022-12-28T06:07:08.748Z,10.07
2022-12-28T06:12:10.227Z,9.23
2022-12-28T06:17:11.745Z,9.40
2022-12-28T06:22:13.223Z,8.65
2022-12-28T06:27:14.767Z,10.32
2022-12-28T06:32:16.275Z,12.40
2022-12-28T06:37:17.748Z,9.60
2022-12-28T06:42:19.282Z,9.93
2022-12-28T06:47:20.846Z,9.05
2022-12-28T06:52:22.362Z,7.78
2022-12-28T06:57:23.867Z,7.88
2022-12-28T07:02:25.493Z,8.93
2022-12-28T07:07:27.133Z,9.48
2022-12-28T07:12:28.604Z,8.20
2022-12-28T07:17:30.110Z,13.50
2022-12-28T07:22:31.608Z,12.02
2022-12-28T07:27:34.887Z,11.27
2022-12-28T07:32:37.911Z,11.88
2022-12-28T07:37:39.465Z,10.77
2022-12-28T07:42:41.024Z,10.63
2022-12-28T07:47:42.622Z,10.73
2022-12-28T07:52:44.455Z,10.27
2022-12-28T07:57:45.963Z,8.73
2022-12-28T08:02:47.543Z,10.27
2022-12-28T08:07:49.110Z,8.13
2022-12-28T08:12:50.634Z,8.48
2022-12-28T08:17:54.171Z,8.75
2022-12-28T08:22:55.724Z,7.88
2022-12-28T08:27:57.456Z,7.20
2022-12-28T08:32:58.965Z,7.65
2022-12-28T08:38:00.609Z,8.40
2022-12-28T08:43:02.595Z,6.88
2022-12-28T08:48:04.670Z,7.35
2022-12-28T08:53:06.294Z,10.88
2022-12-28T08:58:08.042Z,7.80
2022-12-28T09:03:09.830Z,7.43
2022-12-28T09:08:11.478Z,7.28
2022-12-28T09:13:13.021Z,7.55
2022-12-28T09:18:14.615Z,6.53
2022-12-28T09:23:16.389Z,6.93
2022-12-28T09:28:18.133Z,6.35
2022-12-28T09:34:05.514Z,6.05
2022-12-28T09:39:03.108Z,7.03
2022-12-28T09:44:17.079Z,7.90
2022-12-28T09:49:25.598Z,6.43
2022-12-28T09:54:27.151Z,5.68
2022-12-28T09:59:34.552Z,7.40
2022-12-28T10:04:37.784Z,7.67
2022-12-28T10:09:39.475Z,5.45
2022-12-28T10:14:41.545Z,5.55
2022-12-28T10:19:48.141Z,5.13
2022-12-28T10:24:50.335Z,5.10
2022-12-28T10:29:52.832Z,5.20
2022-12-28T10:35:02.179Z,6.18
2022-12-28T10:40:09.762Z,4.80
2022-12-28T10:45:20.277Z,4.22
2022-12-28T10:50:38.003Z,4.65
2022-12-28T10:55:40.023Z,4.53
2022-12-28T11:00:44.569Z,7.68
2022-12-28T11:05:57.322Z,5.95
2022-12-28T11:10:59.217Z,4.50
2022-12-28T11:16:00.920Z,3.20
2022-12-28T11:21:02.504Z,2.70
2022-12-28T11:26:04.254Z,2.78
2022-12-28T11:31:07.962Z,3.00
2022-12-28T11:36:23.096Z,2.55
2022-12-28T11:41:31.799Z,3.30
2022-12-28T11:46:34.868Z,2.63
2022-12-28T11:51:37.133Z,2.72
2022-12-28T11:56:44.684Z,9.13
2022-12-28T12:01:47.190Z,7.27
2022-12-28T12:06:48.738Z,6.78
2022-12-28T12:11:52.942Z,9.00
2022-12-28T12:17:03.534Z,7.40
2022-12-28T12:22:12.729Z,5.72
2022-12-28T12:27:32.360Z,5.47
2022-12-28T12:32:43.466Z,9.23
2022-12-28T12:38:13.433Z,5.50
2022-12-28T12:43:39.387Z,7.03
2022-12-28T12:49:12.587Z,6.78
2022-12-28T12:54:17.875Z,5.88
2022-12-28T12:59:35.049Z,3.67
2022-12-28T13:04:40.148Z,4.85
2022-12-28T13:09:42.587Z,8.95
2022-12-28T13:15:09.107Z,7.80
2022-12-28T13:20:21.483Z,11.13
2022-12-28T13:25:26.573Z,4.72
2022-12-28T13:30:29.327Z,8.90
2022-12-28T13:35:33.230Z,8.07
2022-12-28T13:40:37.706Z,5.25
2022-12-28T13:45:39.577Z,3.45
2022-12-28T13:50:42.398Z,2.40
2022-12-28T13:55:48.791Z,2.65
2022-12-28T14:00:52.621Z,4.25
2022-12-28T14:06:00.169Z,8.50
2022-12-28T14:11:03.056Z,7.13
2022-12-28T14:16:05.598Z,5.43
2022-12-28T14:21:08.274Z,3.88
2022-12-28T14:26:22.428Z,2.40
2022-12-28T14:31:30.093Z,4.43
2022-12-28T14:36:36.172Z,3.05
2022-12-28T14:41:45.548Z,2.67
2022-12-28T14:46:47.315Z,7.38
2022-12-28T14:51:49.052Z,11.77
2022-12-28T14:56:59.468Z,12.07
2022-12-28T15:02:01.224Z,10.27
2022-12-28T15:07:08.254Z,9.20
2022-12-28T15:12:12.974Z,21.23
2022-12-28T15:17:15.800Z,5.30
2022-12-28T15:22:18.610Z,3.88
2022-12-28T15:27:20.279Z,17.02
2022-12-28T15:32:21.843Z,11.07
2022-12-28T15:37:23.475Z,7.72
2022-12-28T15:42:25.021Z,7.32
2022-12-28T15:47:26.568Z,7.80
2022-12-28T15:52:28.100Z,64.85
2022-12-28T15:57:29.800Z,63.35
2022-12-28T16:02:31.663Z,40.72
2022-12-28T16:07:33.358Z,33.00
2022-12-28T16:12:35.220Z,13.13
2022-12-28T16:17:46.900Z,12.63
2022-12-28T16:22:53.725Z,11.88
2022-12-28T16:27:55.274Z,8.15
2022-12-28T16:32:56.820Z,6.95
2022-12-28T16:37:58.313Z,8.60
2022-12-28T16:43:05.089Z,8.82
2022-12-28T16:48:07.957Z,7.78
2022-12-28T16:53:10.189Z,8.20
2022-12-28T16:58:11.713Z,8.02
2022-12-28T17:03:13.391Z,8.27
2022-12-28T17:08:14.917Z,7.13
2022-12-28T17:13:18.342Z,9.18
2022-12-28T17:18:19.868Z,9.55
2022-12-28T17:23:21.427Z,10.70
2022-12-28T17:28:23.703Z,11.07
2022-12-28T17:33:25.219Z,8.65
2022-12-28T17:38:26.789Z,8.50
2022-12-28T17:43:28.472Z,8.48
2022-12-28T17:48:30.408Z,8.30
2022-12-28T17:53:32.345Z,10.40
2022-12-28T17:58:34.417Z,7.72
2022-12-28T18:03:36.560Z,7.50
2022-12-28T18:08:38.301Z,8.30
2022-12-28T18:13:45.723Z,7.70
2022-12-28T18:18:47.377Z,7.80
2022-12-28T18:23:51.520Z,7.45
2022-12-28T18:28:54.539Z,7.50
2022-12-28T18:33:56.191Z,6.50
2022-12-28T18:38:57.707Z,7.25
2022-12-28T18:44:01.572Z,9.23
2022-12-28T18:49:03.137Z,10.57
2022-12-28T18:54:05.607Z,10.93
2022-12-28T18:59:07.137Z,8.65
2022-12-28T19:04:09.961Z,8.50
2022-12-28T19:09:12.491Z,9.85
2022-12-28T19:14:15.393Z,15.23
2022-12-28T19:19:18.007Z,12.60
2022-12-28T19:24:19.883Z,8.27
2022-12-28T19:29:21.464Z,8.15
2022-12-28T19:34:23.044Z,9.27
2022-12-28T19:39:24.620Z,8.18
2022-12-28T19:44:26.287Z,8.20
2022-12-28T19:49:27.812Z,18.02
2022-12-28T19:54:29.566Z,14.57
2022-12-28T19:59:31.135Z,17.85
2022-12-28T20:04:32.793Z,10.60
2022-12-28T20:09:34.905Z,11.70
2022-12-28T20:14:36.490Z,9.05
2022-12-28T20:19:38.546Z,7.55
2022-12-28T20:24:40.085Z,5.82
2022-12-28T20:29:41.629Z,6.72
2022-12-28T20:34:43.203Z,12.38
2022-12-28T20:39:44.765Z,10.77
2022-12-28T20:44:46.323Z,9.25
2022-12-28T20:49:47.879Z,11.18
2022-12-28T20:54:49.447Z,7.57
2022-12-28T20:59:51.071Z,6.10
2022-12-28T21:04:52.630Z,7.63
2022-12-28T21:09:54.234Z,7.82
2022-12-28T21:14:55.751Z,11.93
2022-12-28T21:19:57.317Z,19.38
2022-12-28T21:24:58.867Z,14.27
2022-12-28T21:30:00.403Z,6.38
2022-12-28T21:35:02.053Z,5.55
2022-12-28T21:40:08.953Z,8.20
2022-12-28T21:45:10.990Z,6.07
2022-12-28T21:50:12.605Z,6.07
2022-12-28T21:55:32.935Z,6.55
2022-12-28T22:00:53.184Z,6.32
2022-12-28T22:06:02.629Z,6.32
2022-12-28T22:11:22.834Z,7.25
2022-12-28T22:16:24.787Z,7.28
2022-12-28T22:21:27.665Z,6.88
2022-12-28T22:26:29.227Z,14.27
2022-12-28T22:31:30.948Z,11.60
2022-12-28T22:36:32.981Z,10.55
2022-12-28T22:41:34.582Z,9.98
2022-12-28T22:46:36.299Z,16.60
2022-12-28T22:51:38.182Z,20.20
2022-12-28T22:56:39.701Z,27.15
2022-12-28T23:01:41.607Z,16.88
2022-12-28T23:06:43.280Z,17.25
2022-12-28T23:11:44.909Z,19.20
2022-12-28T23:16:47.162Z,12.30
2022-12-28T23:22:07.450Z,11.05
2022-12-28T23:27:21.678Z,8.80
2022-12-28T23:32:23.480Z,8.63
2022-12-28T23:37:25.223Z,9.02
2022-12-28T23:42:27.057Z,8.00
2022-12-28T23:47:28.663Z,9.27
2022-12-28T23:52:31.034Z,7.97
2022-12-28T23:57:33.022Z,8.18
